sensor_id;sensor_type;location;lat;lon;timestamp;P1;durP1;ratioP1;P2;durP2;ratioP2
59970;SDS011;45825;45.434;9.116;2022-11-15T00:02:21;24.20;;;17.97;;
59970;SDS011;45825;45.434;9.116;2022-11-15T00:04:46;24.00;;;17.37;;
59970;SDS011;45825;45.434;9.116;2022-11-15T00:07:12;22.80;;;16.80;;
59970;SDS011;45825;45.434;9.116;2022-11-15T00:09:37;24.30;;;16.87;;
59970;SDS011;45825;45.434;9.116;2022-11-15T00:12:02;22.60;;;16.08;;
59970;SDS011;45825;45.434;9.116;2022-11-15T00:14:27;21.23;;;15.13;;
59970;SDS011;45825;45.434;9.116;2022-11-15T00:16:53;22.98;;;16.58;;
59970;SDS011;45825;45.434;9.116;2022-11-15T00:19:18;24.77;;;17.27;;
59970;SDS011;45825;45.434;9.116;2022-11-15T00:21:43;22.40;;;16.90;;
59970;SDS011;45825;45.434;9.116;2022-11-15T00:24:08;22.45;;;17.45;;
59970;SDS011;45825;45.434;9.116;2022-11-15T00:26:34;23.55;;;17.55;;
59970;SDS011;45825;45.434;9.116;2022-11-15T00:28:59;23.27;;;17.20;;
59970;SDS011;45825;45.434;9.116;2022-11-15T00:31:24;21.27;;;15.83;;
59970;SDS011;45825;45.434;9.116;2022-11-15T00:33:49;23.17;;;17.00;;
59970;SDS011;45825;45.434;9.116;2022-11-15T00:36:14;21.60;;;16.27;;
59970;SDS011;45825;45.434;9.116;2022-11-15T00:38:40;21.00;;;16.60;;
59970;SDS011;45825;45.434;9.116;2022-11-15T00:41:06;21.90;;;16.58;;
59970;SDS011;45825;45.434;9.116;2022-11-15T00:43:32;21.33;;;17.08;;
59970;SDS011;45825;45.434;9.116;2022-11-15T00:45:57;20.77;;;16.20;;
59970;SDS011;45825;45.434;9.116;2022-11-15T00:48:23;20.35;;;15.85;;
59970;SDS011;45825;45.434;9.116;2022-11-15T00:50:48;21.27;;;15.70;;
59970;SDS011;45825;45.434;9.116;2022-11-15T00:53:14;20.13;;;15.88;;
59970;SDS011;45825;45.434;9.116;2022-11-15T00:55:39;20.92;;;16.33;;
59970;SDS011;45825;45.434;9.116;2022-11-15T00:58:04;21.02;;;15.88;;
59970;SDS011;45825;45.434;9.116;2022-11-15T01:00:30;21.50;;;15.87;;
59970;SDS011;45825;45.434;9.116;2022-11-15T01:02:55;20.42;;;15.48;;
59970;SDS011;45825;45.434;9.116;2022-11-15T01:05:20;19.90;;;15.30;;
59970;SDS011;45825;45.434;9.116;2022-11-15T01:07:45;22.25;;;15.90;;
59970;SDS011;45825;45.434;9.116;2022-11-15T01:10:11;21.55;;;16.08;;
59970;SDS011;45825;45.434;9.116;2022-11-15T01:12:36;19.55;;;15.60;;
59970;SDS011;45825;45.434;9.116;2022-11-15T01:15:01;19.43;;;14.57;;
59970;SDS011;45825;45.434;9.116;2022-11-15T01:17:27;20.52;;;15.50;;
59970;SDS011;45825;45.434;9.116;2022-11-15T01:19:52;18.83;;;14.63;;
59970;SDS011;45825;45.434;9.116;2022-11-15T01:22:17;18.30;;;14.70;;
59970;SDS011;45825;45.434;9.116;2022-11-15T01:24:43;18.13;;;14.40;;
59970;SDS011;45825;45.434;9.116;2022-11-15T01:27:08;18.02;;;14.52;;
59970;SDS011;45825;45.434;9.116;2022-11-15T01:29:33;16.27;;;13.52;;
59970;SDS011;45825;45.434;9.116;2022-11-15T01:31:58;20.05;;;13.93;;
59970;SDS011;45825;45.434;9.116;2022-11-15T01:34:24;19.48;;;14.48;;
59970;SDS011;45825;45.434;9.116;2022-11-15T01:36:49;18.80;;;14.40;;
59970;SDS011;45825;45.434;9.116;2022-11-15T01:39:14;18.53;;;14.10;;
59970;SDS011;45825;45.434;9.116;2022-11-15T01:41:40;18.02;;;13.98;;
59970;SDS011;45825;45.434;9.116;2022-11-15T01:46:49;18.20;;;14.45;;
59970;SDS011;45825;45.434;9.116;2022-11-15T01:49:16;17.20;;;13.57;;
59970;SDS011;45825;45.434;9.116;2022-11-15T01:51:42;16.88;;;13.60;;
59970;SDS011;45825;45.434;9.116;2022-11-15T01:54:08;17.75;;;13.85;;
59970;SDS011;45825;45.434;9.116;2022-11-15T01:56:36;17.75;;;14.48;;
59970;SDS011;45825;45.434;9.116;2022-11-15T01:59:03;18.63;;;14.35;;
59970;SDS011;45825;45.434;9.116;2022-11-15T02:01:29;18.05;;;14.43;;
59970;SDS011;45825;45.434;9.116;2022-11-15T02:03:56;18.10;;;14.15;;
59970;SDS011;45825;45.434;9.116;2022-11-15T02:06:23;19.42;;;14.73;;
59970;SDS011;45825;45.434;9.116;2022-11-15T02:08:49;17.67;;;14.43;;
59970;SDS011;45825;45.434;9.116;2022-11-15T02:11:15;19.33;;;13.75;;
59970;SDS011;45825;45.434;9.116;2022-11-15T02:13:40;20.50;;;15.02;;
59970;SDS011;45825;45.434;9.116;2022-11-15T02:16:12;19.13;;;15.00;;
59970;SDS011;45825;45.434;9.116;2022-11-15T02:18:40;20.20;;;15.75;;
59970;SDS011;45825;45.434;9.116;2022-11-15T02:29:05;18.27;;;14.55;;
59970;SDS011;45825;45.434;9.116;2022-11-15T02:31:54;20.05;;;15.00;;
59970;SDS011;45825;45.434;9.116;2022-11-15T02:34:35;18.85;;;14.70;;
59970;SDS011;45825;45.434;9.116;2022-11-15T02:37:16;16.50;;;13.07;;
59970;SDS011;45825;45.434;9.116;2022-11-15T02:42:12;15.25;;;12.57;;
59970;SDS011;45825;45.434;9.116;2022-11-15T02:44:58;16.45;;;12.07;;
59970;SDS011;45825;45.434;9.116;2022-11-15T02:47:26;15.90;;;12.30;;
59970;SDS011;45825;45.434;9.116;2022-11-15T02:49:54;15.20;;;12.05;;
59970;SDS011;45825;45.434;9.116;2022-11-15T02:52:21;15.52;;;12.07;;
59970;SDS011;45825;45.434;9.116;2022-11-15T02:54:57;14.60;;;12.10;;
59970;SDS011;45825;45.434;9.116;2022-11-15T02:57:30;15.85;;;12.57;;
59970;SDS011;45825;45.434;9.116;2022-11-15T03:03:10;15.67;;;13.07;;
59970;SDS011;45825;45.434;9.116;2022-11-15T03:07:35;15.20;;;13.23;;
59970;SDS011;45825;45.434;9.116;2022-11-15T03:10:05;17.58;;;13.20;;
59970;SDS011;45825;45.434;9.116;2022-11-15T03:12:45;15.77;;;13.55;;
59970;SDS011;45825;45.434;9.116;2022-11-15T03:15:21;18.52;;;13.85;;
59970;SDS011;45825;45.434;9.116;2022-11-15T03:17:59;18.17;;;13.68;;
59970;SDS011;45825;45.434;9.116;2022-11-15T03:20:25;20.10;;;14.15;;
59970;SDS011;45825;45.434;9.116;2022-11-15T03:22:52;18.23;;;13.15;;
59970;SDS011;45825;45.434;9.116;2022-11-15T03:25:19;16.35;;;12.95;;
59970;SDS011;45825;45.434;9.116;2022-11-15T03:27:46;19.60;;;14.30;;
59970;SDS011;45825;45.434;9.116;2022-11-15T03:30:13;18.77;;;13.98;;
59970;SDS011;45825;45.434;9.116;2022-11-15T03:32:40;19.95;;;13.50;;
59970;SDS011;45825;45.434;9.116;2022-11-15T03:35:11;18.50;;;13.68;;
59970;SDS011;45825;45.434;9.116;2022-11-15T03:40:02;18.58;;;13.90;;
59970;SDS011;45825;45.434;9.116;2022-11-15T03:42:33;17.77;;;13.02;;
59970;SDS011;45825;45.434;9.116;2022-11-15T03:47:36;18.38;;;13.95;;
59970;SDS011;45825;45.434;9.116;2022-11-15T03:50:10;18.63;;;14.15;;
59970;SDS011;45825;45.434;9.116;2022-11-15T03:52:37;18.08;;;13.38;;
59970;SDS011;45825;45.434;9.116;2022-11-15T03:55:05;19.33;;;13.40;;
59970;SDS011;45825;45.434;9.116;2022-11-15T03:57:31;19.65;;;14.20;;
59970;SDS011;45825;45.434;9.116;2022-11-15T03:59:56;19.73;;;14.17;;
59970;SDS011;45825;45.434;9.116;2022-11-15T04:02:21;18.35;;;13.70;;
59970;SDS011;45825;45.434;9.116;2022-11-15T04:04:47;18.60;;;13.68;;
59970;SDS011;45825;45.434;9.116;2022-11-15T04:07:12;19.90;;;14.00;;
59970;SDS011;45825;45.434;9.116;2022-11-15T04:09:37;17.70;;;14.38;;
59970;SDS011;45825;45.434;9.116;2022-11-15T04:12:21;19.27;;;12.80;;
59970;SDS011;45825;45.434;9.116;2022-11-15T04:14:56;17.08;;;13.73;;
59970;SDS011;45825;45.434;9.116;2022-11-15T04:17:37;17.52;;;13.45;;
59970;SDS011;45825;45.434;9.116;2022-11-15T04:20:14;17.20;;;13.13;;
59970;SDS011;45825;45.434;9.116;2022-11-15T04:22:58;17.63;;;14.05;;
59970;SDS011;45825;45.434;9.116;2022-11-15T04:25:43;18.05;;;13.15;;
59970;SDS011;45825;45.434;9.116;2022-11-15T04:28:08;18.77;;;13.57;;
59970;SDS011;45825;45.434;9.116;2022-11-15T04:30:34;17.63;;;13.68;;
59970;SDS011;45825;45.434;9.116;2022-11-15T04:32:59;18.20;;;14.32;;
59970;SDS011;45825;45.434;9.116;2022-11-15T04:35:24;19.08;;;15.07;;
59970;SDS011;45825;45.434;9.116;2022-11-15T04:37:49;18.15;;;14.27;;
59970;SDS011;45825;45.434;9.116;2022-11-15T04:40:15;18.27;;;13.67;;
59970;SDS011;45825;45.434;9.116;2022-11-15T04:42:40;19.60;;;14.65;;
59970;SDS011;45825;45.434;9.116;2022-11-15T04:45:06;19.85;;;14.45;;
59970;SDS011;45825;45.434;9.116;2022-11-15T04:47:31;18.02;;;14.07;;
59970;SDS011;45825;45.434;9.116;2022-11-15T04:49:57;18.10;;;14.07;;
59970;SDS011;45825;45.434;9.116;2022-11-15T04:52:22;18.40;;;13.67;;
59970;SDS011;45825;45.434;9.116;2022-11-15T04:54:47;17.57;;;13.67;;
59970;SDS011;45825;45.434;9.116;2022-11-15T04:57:12;19.07;;;14.33;;
59970;SDS011;45825;45.434;9.116;2022-11-15T04:59:37;23.10;;;14.20;;
59970;SDS011;45825;45.434;9.116;2022-11-15T05:02:02;21.23;;;15.13;;
59970;SDS011;45825;45.434;9.116;2022-11-15T05:04:28;17.20;;;13.57;;
59970;SDS011;45825;45.434;9.116;2022-11-15T05:06:53;18.37;;;14.30;;
59970;SDS011;45825;45.434;9.116;2022-11-15T05:09:19;18.30;;;13.45;;
59970;SDS011;45825;45.434;9.116;2022-11-15T05:11:44;19.30;;;14.43;;
59970;SDS011;45825;45.434;9.116;2022-11-15T05:14:10;20.27;;;14.40;;
59970;SDS011;45825;45.434;9.116;2022-11-15T05:16:35;18.42;;;13.57;;
59970;SDS011;45825;45.434;9.116;2022-11-15T05:19:00;18.42;;;13.85;;
59970;SDS011;45825;45.434;9.116;2022-11-15T05:21:25;18.48;;;14.10;;
59970;SDS011;45825;45.434;9.116;2022-11-15T05:23:51;17.92;;;13.80;;
59970;SDS011;45825;45.434;9.116;2022-11-15T05:26:16;17.70;;;14.03;;
59970;SDS011;45825;45.434;9.116;2022-11-15T05:28:42;17.13;;;13.65;;
59970;SDS011;45825;45.434;9.116;2022-11-15T05:31:09;17.85;;;14.02;;
59970;SDS011;45825;45.434;9.116;2022-11-15T05:33:35;19.08;;;14.68;;
59970;SDS011;45825;45.434;9.116;2022-11-15T05:36:02;18.70;;;14.23;;
59970;SDS011;45825;45.434;9.116;2022-11-15T05:38:29;18.98;;;14.43;;
59970;SDS011;45825;45.434;9.116;2022-11-15T05:40:54;16.80;;;13.95;;
59970;SDS011;45825;45.434;9.116;2022-11-15T05:43:19;16.45;;;12.85;;
59970;SDS011;45825;45.434;9.116;2022-11-15T05:45:45;17.90;;;12.77;;
59970;SDS011;45825;45.434;9.116;2022-11-15T05:48:10;17.25;;;12.65;;
59970;SDS011;45825;45.434;9.116;2022-11-15T05:50:36;17.25;;;13.57;;
59970;SDS011;45825;45.434;9.116;2022-11-15T05:53:03;15.48;;;13.02;;
59970;SDS011;45825;45.434;9.116;2022-11-15T05:55:29;16.17;;;12.43;;
59970;SDS011;45825;45.434;9.116;2022-11-15T05:57:54;18.50;;;13.23;;
59970;SDS011;45825;45.434;9.116;2022-11-15T06:00:19;16.38;;;12.55;;
59970;SDS011;45825;45.434;9.116;2022-11-15T06:02:45;16.58;;;12.73;;
59970;SDS011;45825;45.434;9.116;2022-11-15T06:05:10;13.20;;;11.30;;
59970;SDS011;45825;45.434;9.116;2022-11-15T06:07:35;15.77;;;12.55;;
59970;SDS011;45825;45.434;9.116;2022-11-15T06:10:00;17.23;;;12.67;;
59970;SDS011;45825;45.434;9.116;2022-11-15T06:12:25;14.60;;;11.63;;
59970;SDS011;45825;45.434;9.116;2022-11-15T06:14:51;15.40;;;11.37;;
59970;SDS011;45825;45.434;9.116;2022-11-15T06:17:16;16.10;;;12.10;;
59970;SDS011;45825;45.434;9.116;2022-11-15T06:19:41;18.17;;;12.07;;
59970;SDS011;45825;45.434;9.116;2022-11-15T06:22:06;14.73;;;11.53;;
59970;SDS011;45825;45.434;9.116;2022-11-15T06:24:31;14.65;;;11.38;;
59970;SDS011;45825;45.434;9.116;2022-11-15T06:26:56;13.00;;;10.73;;
59970;SDS011;45825;45.434;9.116;2022-11-15T06:29:22;15.30;;;12.18;;
59970;SDS011;45825;45.434;9.116;2022-11-15T06:31:48;15.20;;;11.82;;
59970;SDS011;45825;45.434;9.116;2022-11-15T06:34:13;16.90;;;13.00;;
59970;SDS011;45825;45.434;9.116;2022-11-15T06:36:38;17.00;;;12.13;;
59970;SDS011;45825;45.434;9.116;2022-11-15T06:39:04;15.30;;;11.87;;
59970;SDS011;45825;45.434;9.116;2022-11-15T06:41:29;16.60;;;12.20;;
59970;SDS011;45825;45.434;9.116;2022-11-15T06:43:54;17.15;;;13.18;;
59970;SDS011;45825;45.434;9.116;2022-11-15T06:46:19;17.13;;;13.15;;
59970;SDS011;45825;45.434;9.116;2022-11-15T06:48:45;17.63;;;12.85;;
59970;SDS011;45825;45.434;9.116;2022-11-15T06:51:10;17.67;;;12.53;;
59970;SDS011;45825;45.434;9.116;2022-11-15T06:53:35;17.63;;;12.65;;
59970;SDS011;45825;45.434;9.116;2022-11-15T06:56:01;17.00;;;13.05;;
59970;SDS011;45825;45.434;9.116;2022-11-15T06:58:26;16.25;;;11.98;;
59970;SDS011;45825;45.434;9.116;2022-11-15T07:00:52;16.15;;;12.63;;
59970;SDS011;45825;45.434;9.116;2022-11-15T07:03:17;17.13;;;13.55;;
59970;SDS011;45825;45.434;9.116;2022-11-15T07:05:49;18.87;;;13.20;;
59970;SDS011;45825;45.434;9.116;2022-11-15T07:08:14;18.48;;;12.50;;
59970;SDS011;45825;45.434;9.116;2022-11-15T07:10:40;18.07;;;12.83;;
59970;SDS011;45825;45.434;9.116;2022-11-15T07:13:05;16.50;;;12.52;;
59970;SDS011;45825;45.434;9.116;2022-11-15T07:15:30;18.50;;;12.82;;
59970;SDS011;45825;45.434;9.116;2022-11-15T07:17:55;17.27;;;12.90;;
59970;SDS011;45825;45.434;9.116;2022-11-15T07:20:20;19.77;;;13.57;;
59970;SDS011;45825;45.434;9.116;2022-11-15T07:22:46;16.93;;;12.97;;
59970;SDS011;45825;45.434;9.116;2022-11-15T07:25:11;18.90;;;12.83;;
59970;SDS011;45825;45.434;9.116;2022-11-15T07:27:36;17.70;;;13.60;;
59970;SDS011;45825;45.434;9.116;2022-11-15T07:30:02;16.80;;;12.88;;
59970;SDS011;45825;45.434;9.116;2022-11-15T07:32:27;18.13;;;13.35;;
59970;SDS011;45825;45.434;9.116;2022-11-15T07:34:52;19.10;;;14.25;;
59970;SDS011;45825;45.434;9.116;2022-11-15T07:37:18;17.00;;;13.83;;
59970;SDS011;45825;45.434;9.116;2022-11-15T07:39:43;19.77;;;15.13;;
59970;SDS011;45825;45.434;9.116;2022-11-15T07:42:09;20.80;;;15.15;;
59970;SDS011;45825;45.434;9.116;2022-11-15T07:44:53;19.23;;;14.85;;
59970;SDS011;45825;45.434;9.116;2022-11-15T07:47:18;19.47;;;15.37;;
59970;SDS011;45825;45.434;9.116;2022-11-15T07:49:43;20.10;;;15.13;;
59970;SDS011;45825;45.434;9.116;2022-11-15T07:52:08;20.77;;;16.13;;
59970;SDS011;45825;45.434;9.116;2022-11-15T07:54:34;18.40;;;15.70;;
59970;SDS011;45825;45.434;9.116;2022-11-15T07:56:59;21.65;;;17.20;;
59970;SDS011;45825;45.434;9.116;2022-11-15T07:59:24;19.90;;;16.37;;
59970;SDS011;45825;45.434;9.116;2022-11-15T08:01:49;21.93;;;17.10;;
59970;SDS011;45825;45.434;9.116;2022-11-15T08:04:14;20.42;;;16.65;;
59970;SDS011;45825;45.434;9.116;2022-11-15T08:06:40;21.27;;;17.37;;
59970;SDS011;45825;45.434;9.116;2022-11-15T08:09:05;24.73;;;18.75;;
59970;SDS011;45825;45.434;9.116;2022-11-15T08:11:30;22.20;;;18.70;;
59970;SDS011;45825;45.434;9.116;2022-11-15T08:13:55;24.40;;;18.13;;
59970;SDS011;45825;45.434;9.116;2022-11-15T08:16:20;19.77;;;16.70;;
59970;SDS011;45825;45.434;9.116;2022-11-15T08:18:46;19.47;;;16.03;;
59970;SDS011;45825;45.434;9.116;2022-11-15T08:21:12;19.75;;;15.80;;
59970;SDS011;45825;45.434;9.116;2022-11-15T08:23:39;20.75;;;16.05;;
59970;SDS011;45825;45.434;9.116;2022-11-15T08:26:04;20.43;;;15.60;;
59970;SDS011;45825;45.434;9.116;2022-11-15T08:28:30;22.33;;;16.70;;
59970;SDS011;45825;45.434;9.116;2022-11-15T08:30:55;20.55;;;16.23;;
59970;SDS011;45825;45.434;9.116;2022-11-15T08:33:20;21.37;;;17.03;;
59970;SDS011;45825;45.434;9.116;2022-11-15T08:35:45;22.92;;;18.33;;
59970;SDS011;45825;45.434;9.116;2022-11-15T08:38:11;22.20;;;17.40;;
59970;SDS011;45825;45.434;9.116;2022-11-15T08:40:36;23.25;;;17.77;;
59970;SDS011;45825;45.434;9.116;2022-11-15T08:43:02;22.83;;;17.23;;
59970;SDS011;45825;45.434;9.116;2022-11-15T08:45:28;23.63;;;18.38;;
59970;SDS011;45825;45.434;9.116;2022-11-15T08:47:53;26.55;;;19.58;;
59970;SDS011;45825;45.434;9.116;2022-11-15T08:50:19;26.08;;;20.23;;
59970;SDS011;45825;45.434;9.116;2022-11-15T08:52:44;23.33;;;18.13;;
59970;SDS011;45825;45.434;9.116;2022-11-15T08:55:09;20.90;;;16.88;;
59970;SDS011;45825;45.434;9.116;2022-11-15T08:57:35;23.02;;;18.92;;
59970;SDS011;45825;45.434;9.116;2022-11-15T09:00:01;24.20;;;19.85;;
59970;SDS011;45825;45.434;9.116;2022-11-15T09:02:26;27.45;;;21.25;;
59970;SDS011;45825;45.434;9.116;2022-11-15T09:04:51;24.40;;;19.70;;
59970;SDS011;45825;45.434;9.116;2022-11-15T09:07:16;29.03;;;23.27;;
59970;SDS011;45825;45.434;9.116;2022-11-15T09:09:41;24.88;;;20.48;;
59970;SDS011;45825;45.434;9.116;2022-11-15T09:12:07;28.75;;;22.67;;
59970;SDS011;45825;45.434;9.116;2022-11-15T09:14:32;24.27;;;18.27;;
59970;SDS011;45825;45.434;9.116;2022-11-15T09:16:58;21.75;;;18.20;;
59970;SDS011;45825;45.434;9.116;2022-11-15T09:19:23;24.80;;;19.33;;
59970;SDS011;45825;45.434;9.116;2022-11-15T09:21:49;25.70;;;19.75;;
59970;SDS011;45825;45.434;9.116;2022-11-15T09:24:14;25.10;;;19.75;;
59970;SDS011;45825;45.434;9.116;2022-11-15T09:26:40;25.33;;;20.13;;
59970;SDS011;45825;45.434;9.116;2022-11-15T09:29:05;23.00;;;19.05;;
59970;SDS011;45825;45.434;9.116;2022-11-15T09:31:30;24.30;;;19.47;;
59970;SDS011;45825;45.434;9.116;2022-11-15T09:33:56;24.73;;;19.97;;
59970;SDS011;45825;45.434;9.116;2022-11-15T09:36:21;26.63;;;20.93;;
59970;SDS011;45825;45.434;9.116;2022-11-15T09:38:46;28.03;;;23.23;;
59970;SDS011;45825;45.434;9.116;2022-11-15T09:51:18;25.88;;;20.40;;
59970;SDS011;45825;45.434;9.116;2022-11-15T09:56:14;25.83;;;19.95;;
59970;SDS011;45825;45.434;9.116;2022-11-15T09:58:47;26.02;;;21.30;;
59970;SDS011;45825;45.434;9.116;2022-11-15T10:01:28;31.80;;;24.83;;
59970;SDS011;45825;45.434;9.116;2022-11-15T10:03:56;27.50;;;20.33;;
59970;SDS011;45825;45.434;9.116;2022-11-15T10:06:23;25.73;;;19.02;;
59970;SDS011;45825;45.434;9.116;2022-11-15T10:08:51;24.52;;;18.33;;
59970;SDS011;45825;45.434;9.116;2022-11-15T10:11:28;24.80;;;18.85;;
59970;SDS011;45825;45.434;9.116;2022-11-15T10:13:55;22.80;;;18.45;;
59970;SDS011;45825;45.434;9.116;2022-11-15T10:21:19;25.98;;;19.95;;
59970;SDS011;45825;45.434;9.116;2022-11-15T10:23:45;24.58;;;19.48;;
59970;SDS011;45825;45.434;9.116;2022-11-15T10:26:11;24.05;;;19.33;;
59970;SDS011;45825;45.434;9.116;2022-11-15T10:28:37;23.77;;;19.90;;
59970;SDS011;45825;45.434;9.116;2022-11-15T10:31:02;25.97;;;20.43;;
59970;SDS011;45825;45.434;9.116;2022-11-15T10:43:44;23.05;;;18.92;;
59970;SDS011;45825;45.434;9.116;2022-11-15T10:46:19;24.75;;;18.55;;
59970;SDS011;45825;45.434;9.116;2022-11-15T10:48:45;24.30;;;19.23;;
59970;SDS011;45825;45.434;9.116;2022-11-15T10:51:19;27.70;;;19.02;;
59970;SDS011;45825;45.434;9.116;2022-11-15T10:53:45;21.95;;;15.52;;
59970;SDS011;45825;45.434;9.116;2022-11-15T10:56:12;22.80;;;15.85;;
59970;SDS011;45825;45.434;9.116;2022-11-15T10:58:39;20.27;;;16.65;;
59970;SDS011;45825;45.434;9.116;2022-11-15T11:01:25;23.73;;;16.67;;
59970;SDS011;45825;45.434;9.116;2022-11-15T11:04:04;29.58;;;23.33;;
59970;SDS011;45825;45.434;9.116;2022-11-15T11:06:29;24.38;;;19.10;;
59970;SDS011;45825;45.434;9.116;2022-11-15T11:09:04;26.30;;;17.92;;
59970;SDS011;45825;45.434;9.116;2022-11-15T11:11:47;21.25;;;16.98;;
59970;SDS011;45825;45.434;9.116;2022-11-15T11:16:42;21.75;;;17.27;;
59970;SDS011;45825;45.434;9.116;2022-11-15T11:19:14;28.02;;;20.13;;
59970;SDS011;45825;45.434;9.116;2022-11-15T11:24:13;23.40;;;18.30;;
59970;SDS011;45825;45.434;9.116;2022-11-15T11:34:16;27.55;;;19.70;;
59970;SDS011;45825;45.434;9.116;2022-11-15T11:45:14;28.58;;;21.27;;
59970;SDS011;45825;45.434;9.116;2022-11-15T11:47:46;32.67;;;24.17;;
59970;SDS011;45825;45.434;9.116;2022-11-15T11:50:18;30.65;;;21.63;;
59970;SDS011;45825;45.434;9.116;2022-11-15T11:57:48;23.80;;;18.02;;
59970;SDS011;45825;45.434;9.116;2022-11-15T12:00:17;29.42;;;19.45;;
59970;SDS011;45825;45.434;9.116;2022-11-15T12:02:44;27.48;;;20.13;;
59970;SDS011;45825;45.434;9.116;2022-11-15T12:11:07;25.95;;;19.58;;
59970;SDS011;45825;45.434;9.116;2022-11-15T12:13:34;21.95;;;17.50;;
59970;SDS011;45825;45.434;9.116;2022-11-15T12:16:15;23.65;;;18.30;;
59970;SDS011;45825;45.434;9.116;2022-11-15T12:18:47;24.52;;;18.67;;
59970;SDS011;45825;45.434;9.116;2022-11-15T12:21:15;26.65;;;19.67;;
59970;SDS011;45825;45.434;9.116;2022-11-15T12:23:46;25.42;;;19.05;;
59970;SDS011;45825;45.434;9.116;2022-11-15T12:26:18;24.83;;;19.85;;
59970;SDS011;45825;45.434;9.116;2022-11-15T12:28:46;27.27;;;19.70;;
59970;SDS011;45825;45.434;9.116;2022-11-15T12:33:42;24.08;;;19.45;;
59970;SDS011;45825;45.434;9.116;2022-11-15T12:36:09;26.05;;;21.05;;
59970;SDS011;45825;45.434;9.116;2022-11-15T12:39:08;28.25;;;20.67;;
59970;SDS011;45825;45.434;9.116;2022-11-15T12:41:28;26.98;;;19.75;;
59970;SDS011;45825;45.434;9.116;2022-11-15T12:43:54;26.73;;;20.13;;
59970;SDS011;45825;45.434;9.116;2022-11-15T12:46:21;26.77;;;21.13;;
59970;SDS011;45825;45.434;9.116;2022-11-15T12:48:48;27.50;;;20.58;;
59970;SDS011;45825;45.434;9.116;2022-11-15T12:51:13;25.38;;;20.08;;
59970;SDS011;45825;45.434;9.116;2022-11-15T12:53:38;26.43;;;21.43;;
59970;SDS011;45825;45.434;9.116;2022-11-15T13:01:14;28.77;;;22.70;;
59970;SDS011;45825;45.434;9.116;2022-11-15T13:06:42;27.25;;;21.67;;
59970;SDS011;45825;45.434;9.116;2022-11-15T13:09:53;26.10;;;20.65;;
59970;SDS011;45825;45.434;9.116;2022-11-15T13:11:53;24.80;;;21.05;;
59970;SDS011;45825;45.434;9.116;2022-11-15T13:17:02;28.98;;;22.52;;
59970;SDS011;45825;45.434;9.116;2022-11-15T13:19:27;27.45;;;21.58;;
59970;SDS011;45825;45.434;9.116;2022-11-15T13:21:53;26.42;;;21.85;;
59970;SDS011;45825;45.434;9.116;2022-11-15T13:24:38;26.50;;;21.23;;
59970;SDS011;45825;45.434;9.116;2022-11-15T13:27:09;27.23;;;22.60;;
59970;SDS011;45825;45.434;9.116;2022-11-15T13:29:35;29.73;;;22.65;;
59970;SDS011;45825;45.434;9.116;2022-11-15T13:32:00;25.88;;;21.55;;
59970;SDS011;45825;45.434;9.116;2022-11-15T13:34:27;26.67;;;21.92;;
59970;SDS011;45825;45.434;9.116;2022-11-15T13:36:53;27.98;;;20.98;;
59970;SDS011;45825;45.434;9.116;2022-11-15T13:39:34;28.65;;;21.85;;
59970;SDS011;45825;45.434;9.116;2022-11-15T13:42:01;29.35;;;21.75;;
59970;SDS011;45825;45.434;9.116;2022-11-15T13:44:28;25.58;;;21.33;;
59970;SDS011;45825;45.434;9.116;2022-11-15T13:47:00;25.55;;;21.77;;
59970;SDS011;45825;45.434;9.116;2022-11-15T13:49:30;28.15;;;21.73;;
59970;SDS011;45825;45.434;9.116;2022-11-15T13:51:56;27.52;;;21.48;;
59970;SDS011;45825;45.434;9.116;2022-11-15T13:54:26;25.73;;;20.40;;
59970;SDS011;45825;45.434;9.116;2022-11-15T13:56:54;25.98;;;19.70;;
59970;SDS011;45825;45.434;9.116;2022-11-15T13:59:24;28.98;;;20.65;;
59970;SDS011;45825;45.434;9.116;2022-11-15T14:01:50;25.90;;;21.75;;
59970;SDS011;45825;45.434;9.116;2022-11-15T14:04:18;28.27;;;20.80;;
59970;SDS011;45825;45.434;9.116;2022-11-15T14:06:45;26.55;;;20.77;;
59970;SDS011;45825;45.434;9.116;2022-11-15T14:11:36;25.53;;;20.80;;
59970;SDS011;45825;45.434;9.116;2022-11-15T14:16:32;29.08;;;21.67;;
59970;SDS011;45825;45.434;9.116;2022-11-15T14:18:58;31.23;;;23.13;;
59970;SDS011;45825;45.434;9.116;2022-11-15T14:21:23;27.67;;;20.73;;
59970;SDS011;45825;45.434;9.116;2022-11-15T14:23:48;26.53;;;20.87;;
59970;SDS011;45825;45.434;9.116;2022-11-15T14:28:54;26.30;;;18.40;;
59970;SDS011;45825;45.434;9.116;2022-11-15T14:31:19;24.40;;;18.30;;
59970;SDS011;45825;45.434;9.116;2022-11-15T14:33:44;23.77;;;16.27;;
59970;SDS011;45825;45.434;9.116;2022-11-15T14:36:16;23.57;;;16.10;;
59970;SDS011;45825;45.434;9.116;2022-11-15T14:38:42;23.77;;;15.95;;
59970;SDS011;45825;45.434;9.116;2022-11-15T14:41:24;20.70;;;13.10;;
59970;SDS011;45825;45.434;9.116;2022-11-15T14:43:50;17.13;;;12.85;;
59970;SDS011;45825;45.434;9.116;2022-11-15T14:46:15;17.02;;;12.50;;
59970;SDS011;45825;45.434;9.116;2022-11-15T14:48:40;19.25;;;13.30;;
59970;SDS011;45825;45.434;9.116;2022-11-15T14:51:16;15.43;;;11.48;;
59970;SDS011;45825;45.434;9.116;2022-11-15T14:53:41;15.68;;;11.48;;
59970;SDS011;45825;45.434;9.116;2022-11-15T14:56:07;18.83;;;13.07;;
59970;SDS011;45825;45.434;9.116;2022-11-15T14:58:32;17.08;;;12.20;;
59970;SDS011;45825;45.434;9.116;2022-11-15T15:00:58;17.63;;;13.23;;
59970;SDS011;45825;45.434;9.116;2022-11-15T15:03:23;16.88;;;12.38;;
59970;SDS011;45825;45.434;9.116;2022-11-15T15:05:48;16.93;;;12.60;;
59970;SDS011;45825;45.434;9.116;2022-11-15T15:08:13;18.45;;;13.15;;
59970;SDS011;45825;45.434;9.116;2022-11-15T15:10:40;18.83;;;13.70;;
59970;SDS011;45825;45.434;9.116;2022-11-15T15:13:06;18.25;;;12.85;;
59970;SDS011;45825;45.434;9.116;2022-11-15T15:15:36;18.15;;;13.15;;
59970;SDS011;45825;45.434;9.116;2022-11-15T15:18:02;18.55;;;13.20;;
59970;SDS011;45825;45.434;9.116;2022-11-15T15:20:27;20.85;;;14.85;;
59970;SDS011;45825;45.434;9.116;2022-11-15T15:22:53;19.88;;;14.40;;
59970;SDS011;45825;45.434;9.116;2022-11-15T15:25:23;19.65;;;15.32;;
59970;SDS011;45825;45.434;9.116;2022-11-15T15:27:50;23.67;;;16.92;;
59970;SDS011;45825;45.434;9.116;2022-11-15T15:30:16;24.17;;;17.93;;
59970;SDS011;45825;45.434;9.116;2022-11-15T15:32:41;25.00;;;17.50;;
59970;SDS011;45825;45.434;9.116;2022-11-15T15:35:07;24.60;;;17.80;;
59970;SDS011;45825;45.434;9.116;2022-11-15T15:37:35;23.73;;;17.23;;
59970;SDS011;45825;45.434;9.116;2022-11-15T15:40:00;20.20;;;16.05;;
59970;SDS011;45825;45.434;9.116;2022-11-15T15:42:25;21.00;;;15.43;;
59970;SDS011;45825;45.434;9.116;2022-11-15T15:44:51;21.33;;;14.63;;
59970;SDS011;45825;45.434;9.116;2022-11-15T15:47:17;22.17;;;14.57;;
59970;SDS011;45825;45.434;9.116;2022-11-15T15:49:43;21.80;;;15.68;;
59970;SDS011;45825;45.434;9.116;2022-11-15T15:52:08;21.70;;;15.73;;
59970;SDS011;45825;45.434;9.116;2022-11-15T15:54:33;20.83;;;15.23;;
59970;SDS011;45825;45.434;9.116;2022-11-15T15:56:59;21.67;;;14.43;;
59970;SDS011;45825;45.434;9.116;2022-11-15T15:59:24;19.55;;;15.00;;
59970;SDS011;45825;45.434;9.116;2022-11-15T16:01:49;21.92;;;15.23;;
59970;SDS011;45825;45.434;9.116;2022-11-15T16:04:14;23.60;;;16.37;;
59970;SDS011;45825;45.434;9.116;2022-11-15T16:06:40;21.77;;;15.53;;